sensor_id;sensor_type;location;lat;lon;timestamp;P1;durP1;ratioP1;P2;durP2;ratioP2
10463;SDS011;5279;42.048;24.638;2023-03-19T00:02:26;1.90;;;1.53;;
10463;SDS011;5279;42.048;24.638;2023-03-19T00:04:53;1.90;;;1.73;;
10463;SDS011;5279;42.048;24.638;2023-03-19T00:07:20;1.60;;;1.50;;
10463;SDS011;5279;42.048;24.638;2023-03-19T00:09:48;3.23;;;1.77;;
10463;SDS011;5279;42.048;24.638;2023-03-19T00:12:15;1.90;;;1.60;;
10463;SDS011;5279;42.048;24.638;2023-03-19T00:14:42;1.90;;;1.80;;
10463;SDS011;5279;42.048;24.638;2023-03-19T00:17:09;1.80;;;1.50;;
10463;SDS011;5279;42.048;24.638;2023-03-19T00:19:36;1.77;;;1.60;;
10463;SDS011;5279;42.048;24.638;2023-03-19T00:22:03;1.60;;;1.50;;
10463;SDS011;5279;42.048;24.638;2023-03-19T00:24:31;2.10;;;1.90;;
10463;SDS011;5279;42.048;24.638;2023-03-19T00:27:00;1.73;;;1.63;;
10463;SDS011;5279;42.048;24.638;2023-03-19T00:29:29;2.40;;;2.20;;
10463;SDS011;5279;42.048;24.638;2023-03-19T00:31:55;1.37;;;1.27;;
10463;SDS011;5279;42.048;24.638;2023-03-19T00:34:22;2.30;;;1.60;;
10463;SDS011;5279;42.048;24.638;2023-03-19T00:36:49;2.00;;;1.73;;
10463;SDS011;5279;42.048;24.638;2023-03-19T00:39:16;3.10;;;1.80;;
10463;SDS011;5279;42.048;24.638;2023-03-19T00:41:43;1.40;;;1.30;;
10463;SDS011;5279;42.048;24.638;2023-03-19T00:44:15;1.40;;;1.30;;
10463;SDS011;5279;42.048;24.638;2023-03-19T00:46:43;2.50;;;1.70;;
10463;SDS011;5279;42.048;24.638;2023-03-19T00:49:10;2.50;;;1.60;;
10463;SDS011;5279;42.048;24.638;2023-03-19T00:51:37;2.97;;;1.77;;
10463;SDS011;5279;42.048;24.638;2023-03-19T00:54:07;1.83;;;1.20;;
10463;SDS011;5279;42.048;24.638;2023-03-19T00:56:36;1.50;;;1.40;;
10463;SDS011;5279;42.048;24.638;2023-03-19T00:59:03;3.03;;;1.60;;
10463;SDS011;5279;42.048;24.638;2023-03-19T01:01:32;2.53;;;1.70;;
10463;SDS011;5279;42.048;24.638;2023-03-19T01:03:58;3.60;;;1.67;;
10463;SDS011;5279;42.048;24.638;2023-03-19T01:06:25;1.90;;;1.50;;
10463;SDS011;5279;42.048;24.638;2023-03-19T01:08:52;2.60;;;1.77;;
10463;SDS011;5279;42.048;24.638;2023-03-19T01:11:19;2.20;;;1.80;;
10463;SDS011;5279;42.048;24.638;2023-03-19T01:13:46;1.50;;;1.40;;
10463;SDS011;5279;42.048;24.638;2023-03-19T01:16:13;2.80;;;1.77;;
10463;SDS011;5279;42.048;24.638;2023-03-19T01:18:41;1.77;;;1.67;;
10463;SDS011;5279;42.048;24.638;2023-03-19T01:21:08;2.10;;;1.40;;
10463;SDS011;5279;42.048;24.638;2023-03-19T01:23:36;1.43;;;1.33;;
10463;SDS011;5279;42.048;24.638;2023-03-19T01:26:04;2.90;;;1.57;;
10463;SDS011;5279;42.048;24.638;2023-03-19T01:28:31;1.83;;;1.73;;
10463;SDS011;5279;42.048;24.638;2023-03-19T01:30:58;1.70;;;1.60;;
10463;SDS011;5279;42.048;24.638;2023-03-19T01:33:26;1.73;;;1.60;;
10463;SDS011;5279;42.048;24.638;2023-03-19T01:35:55;1.67;;;1.50;;
10463;SDS011;5279;42.048;24.638;2023-03-19T01:38:23;2.10;;;1.90;;
10463;SDS011;5279;42.048;24.638;2023-03-19T01:40:50;1.60;;;1.50;;
10463;SDS011;5279;42.048;24.638;2023-03-19T01:43:18;2.40;;;1.63;;
10463;SDS011;5279;42.048;24.638;2023-03-19T01:45:46;2.00;;;1.90;;
10463;SDS011;5279;42.048;24.638;2023-03-19T01:48:18;1.80;;;1.70;;
10463;SDS011;5279;42.048;24.638;2023-03-19T01:50:50;1.83;;;1.50;;
10463;SDS011;5279;42.048;24.638;2023-03-19T01:53:21;2.93;;;1.73;;
10463;SDS011;5279;42.048;24.638;2023-03-19T01:55:51;1.30;;;1.20;;
10463;SDS011;5279;42.048;24.638;2023-03-19T01:58:24;1.83;;;1.47;;
10463;SDS011;5279;42.048;24.638;2023-03-19T02:00:54;3.00;;;1.50;;
10463;SDS011;5279;42.048;24.638;2023-03-19T02:03:22;1.47;;;1.37;;
10463;SDS011;5279;42.048;24.638;2023-03-19T02:05:49;1.93;;;1.53;;
10463;SDS011;5279;42.048;24.638;2023-03-19T02:08:18;1.30;;;1.20;;
10463;SDS011;5279;42.048;24.638;2023-03-19T02:10:49;1.50;;;1.40;;
10463;SDS011;5279;42.048;24.638;2023-03-19T02:13:20;1.97;;;1.50;;
10463;SDS011;5279;42.048;24.638;2023-03-19T02:15:47;1.90;;;1.70;;
10463;SDS011;5279;42.048;24.638;2023-03-19T02:18:14;1.60;;;1.50;;
10463;SDS011;5279;42.048;24.638;2023-03-19T02:20:43;1.57;;;1.47;;
10463;SDS011;5279;42.048;24.638;2023-03-19T02:23:19;1.37;;;1.27;;
10463;SDS011;5279;42.048;24.638;2023-03-19T02:26:01;2.47;;;1.63;;
10463;SDS011;5279;42.048;24.638;2023-03-19T02:28:31;1.60;;;1.50;;
10463;SDS011;5279;42.048;24.638;2023-03-19T02:31:00;2.60;;;1.53;;
10463;SDS011;5279;42.048;24.638;2023-03-19T02:33:26;1.67;;;1.57;;
10463;SDS011;5279;42.048;24.638;2023-03-19T02:35:53;2.17;;;1.87;;
10463;SDS011;5279;42.048;24.638;2023-03-19T02:38:23;1.50;;;1.40;;
10463;SDS011;5279;42.048;24.638;2023-03-19T02:40:52;1.40;;;1.30;;
10463;SDS011;5279;42.048;24.638;2023-03-19T02:43:25;1.30;;;1.20;;
10463;SDS011;5279;42.048;24.638;2023-03-19T02:45:52;1.90;;;1.70;;
10463;SDS011;5279;42.048;24.638;2023-03-19T02:48:20;1.07;;;1.07;;
10463;SDS011;5279;42.048;24.638;2023-03-19T02:50:46;1.93;;;1.63;;
10463;SDS011;5279;42.048;24.638;2023-03-19T02:53:13;1.30;;;1.20;;
10463;SDS011;5279;42.048;24.638;2023-03-19T02:55:41;2.13;;;1.63;;
10463;SDS011;5279;42.048;24.638;2023-03-19T02:58:08;1.63;;;1.43;;
10463;SDS011;5279;42.048;24.638;2023-03-19T03:00:36;1.77;;;1.60;;
10463;SDS011;5279;42.048;24.638;2023-03-19T03:03:04;1.60;;;1.50;;
10463;SDS011;5279;42.048;24.638;2023-03-19T03:05:32;1.53;;;1.43;;
10463;SDS011;5279;42.048;24.638;2023-03-19T03:07:59;1.50;;;1.33;;
10463;SDS011;5279;42.048;24.638;2023-03-19T03:10:26;1.53;;;1.43;;
10463;SDS011;5279;42.048;24.638;2023-03-19T03:12:53;1.57;;;1.47;;
10463;SDS011;5279;42.048;24.638;2023-03-19T03:15:20;1.33;;;1.23;;
10463;SDS011;5279;42.048;24.638;2023-03-19T03:17:48;2.00;;;1.50;;
10463;SDS011;5279;42.048;24.638;2023-03-19T03:20:15;1.70;;;1.60;;
10463;SDS011;5279;42.048;24.638;2023-03-19T03:22:44;1.53;;;1.43;;
10463;SDS011;5279;42.048;24.638;2023-03-19T03:25:11;1.77;;;1.47;;
10463;SDS011;5279;42.048;24.638;2023-03-19T03:27:38;1.60;;;1.50;;
10463;SDS011;5279;42.048;24.638;2023-03-19T03:30:06;1.30;;;1.20;;
10463;SDS011;5279;42.048;24.638;2023-03-19T03:32:34;1.97;;;1.20;;
10463;SDS011;5279;42.048;24.638;2023-03-19T03:35:04;1.80;;;1.60;;
10463;SDS011;5279;42.048;24.638;2023-03-19T03:37:32;1.63;;;1.40;;
10463;SDS011;5279;42.048;24.638;2023-03-19T03:39:59;1.73;;;1.47;;
10463;SDS011;5279;42.048;24.638;2023-03-19T03:42:30;1.67;;;1.40;;
10463;SDS011;5279;42.048;24.638;2023-03-19T03:44:57;1.60;;;1.50;;
10463;SDS011;5279;42.048;24.638;2023-03-19T03:47:24;2.13;;;1.40;;
10463;SDS011;5279;42.048;24.638;2023-03-19T03:49:51;1.50;;;1.37;;
10463;SDS011;5279;42.048;24.638;2023-03-19T03:52:19;1.50;;;1.37;;
10463;SDS011;5279;42.048;24.638;2023-03-19T03:54:46;1.37;;;1.27;;
10463;SDS011;5279;42.048;24.638;2023-03-19T03:57:13;1.20;;;1.10;;
10463;SDS011;5279;42.048;24.638;2023-03-19T03:59:40;0.90;;;0.90;;
10463;SDS011;5279;42.048;24.638;2023-03-19T04:02:07;1.27;;;1.17;;
10463;SDS011;5279;42.048;24.638;2023-03-19T04:04:37;1.30;;;1.20;;
10463;SDS011;5279;42.048;24.638;2023-03-19T04:07:04;1.40;;;1.20;;
10463;SDS011;5279;42.048;24.638;2023-03-19T04:09:33;1.77;;;1.60;;
10463;SDS011;5279;42.048;24.638;2023-03-19T04:12:00;1.60;;;1.47;;
10463;SDS011;5279;42.048;24.638;2023-03-19T04:14:27;3.13;;;1.87;;
10463;SDS011;5279;42.048;24.638;2023-03-19T04:16:54;1.90;;;1.80;;
10463;SDS011;5279;42.048;24.638;2023-03-19T04:19:21;2.10;;;1.97;;
10463;SDS011;5279;42.048;24.638;2023-03-19T04:21:48;1.63;;;1.53;;
10463;SDS011;5279;42.048;24.638;2023-03-19T04:24:14;1.50;;;1.40;;
10463;SDS011;5279;42.048;24.638;2023-03-19T04:26:43;1.30;;;1.17;;
10463;SDS011;5279;42.048;24.638;2023-03-19T04:29:11;2.07;;;1.63;;
10463;SDS011;5279;42.048;24.638;2023-03-19T04:31:38;3.90;;;1.87;;
10463;SDS011;5279;42.048;24.638;2023-03-19T04:34:04;1.50;;;1.40;;
10463;SDS011;5279;42.048;24.638;2023-03-19T04:36:31;2.20;;;1.93;;
10463;SDS011;5279;42.048;24.638;2023-03-19T04:38:58;2.20;;;1.60;;
10463;SDS011;5279;42.048;24.638;2023-03-19T04:41:26;1.40;;;1.23;;
10463;SDS011;5279;42.048;24.638;2023-03-19T04:43:54;2.33;;;1.60;;
10463;SDS011;5279;42.048;24.638;2023-03-19T04:46:21;1.97;;;1.30;;
10463;SDS011;5279;42.048;24.638;2023-03-19T04:48:48;1.63;;;1.53;;
10463;SDS011;5279;42.048;24.638;2023-03-19T04:51:15;1.83;;;1.73;;
10463;SDS011;5279;42.048;24.638;2023-03-19T04:53:42;1.50;;;1.40;;
10463;SDS011;5279;42.048;24.638;2023-03-19T04:56:09;1.97;;;1.17;;
10463;SDS011;5279;42.048;24.638;2023-03-19T04:58:36;1.70;;;1.30;;
10463;SDS011;5279;42.048;24.638;2023-03-19T05:01:04;1.53;;;1.43;;
10463;SDS011;5279;42.048;24.638;2023-03-19T05:03:31;1.43;;;1.33;;
10463;SDS011;5279;42.048;24.638;2023-03-19T05:05:58;1.90;;;1.70;;
10463;SDS011;5279;42.048;24.638;2023-03-19T05:08:25;1.40;;;1.30;;
10463;SDS011;5279;42.048;24.638;2023-03-19T05:10:51;1.70;;;1.37;;
10463;SDS011;5279;42.048;24.638;2023-03-19T05:13:18;0.83;;;0.83;;
10463;SDS011;5279;42.048;24.638;2023-03-19T05:15:45;1.50;;;1.30;;
10463;SDS011;5279;42.048;24.638;2023-03-19T05:35:05;4.87;;;3.67;;
10463;SDS011;5279;42.048;24.638;2023-03-19T05:37:32;3.67;;;2.60;;
10463;SDS011;5279;42.048;24.638;2023-03-19T05:39:59;2.47;;;2.00;;
10463;SDS011;5279;42.048;24.638;2023-03-19T05:42:26;1.53;;;1.40;;
10463;SDS011;5279;42.048;24.638;2023-03-19T05:44:52;1.33;;;1.23;;
10463;SDS011;5279;42.048;24.638;2023-03-19T05:47:19;2.17;;;1.40;;
10463;SDS011;5279;42.048;24.638;2023-03-19T05:49:46;1.63;;;1.37;;
10463;SDS011;5279;42.048;24.638;2023-03-19T05:52:14;1.40;;;1.27;;
10463;SDS011;5279;42.048;24.638;2023-03-19T05:54:41;1.60;;;1.50;;
10463;SDS011;5279;42.048;24.638;2023-03-19T05:57:13;1.83;;;1.73;;
10463;SDS011;5279;42.048;24.638;2023-03-19T05:59:41;1.70;;;1.60;;
10463;SDS011;5279;42.048;24.638;2023-03-19T06:02:09;1.40;;;1.17;;
10463;SDS011;5279;42.048;24.638;2023-03-19T06:04:36;1.20;;;1.10;;
10463;SDS011;5279;42.048;24.638;2023-03-19T06:07:03;2.07;;;1.03;;
10463;SDS011;5279;42.048;24.638;2023-03-19T06:09:31;1.13;;;1.03;;
10463;SDS011;5279;42.048;24.638;2023-03-19T06:11:59;1.90;;;1.70;;
10463;SDS011;5279;42.048;24.638;2023-03-19T06:14:26;2.10;;;1.50;;
10463;SDS011;5279;42.048;24.638;2023-03-19T06:16:53;1.80;;;1.70;;
10463;SDS011;5279;42.048;24.638;2023-03-19T06:19:20;6.60;;;2.40;;
10463;SDS011;5279;42.048;24.638;2023-03-19T06:21:47;5.20;;;3.47;;
10463;SDS011;5279;42.048;24.638;2023-03-19T06:24:14;4.63;;;3.60;;
10463;SDS011;5279;42.048;24.638;2023-03-19T06:26:42;4.10;;;3.30;;
10463;SDS011;5279;42.048;24.638;2023-03-19T06:29:09;4.33;;;3.23;;
10463;SDS011;5279;42.048;24.638;2023-03-19T06:31:36;4.40;;;3.37;;
10463;SDS011;5279;42.048;24.638;2023-03-19T06:34:05;4.27;;;3.53;;
10463;SDS011;5279;42.048;24.638;2023-03-19T06:36:32;4.20;;;3.63;;
10463;SDS011;5279;42.048;24.638;2023-03-19T06:38:59;4.87;;;3.37;;
10463;SDS011;5279;42.048;24.638;2023-03-19T06:41:27;6.10;;;3.33;;
10463;SDS011;5279;42.048;24.638;2023-03-19T06:43:55;5.40;;;3.10;;
10463;SDS011;5279;42.048;24.638;2023-03-19T06:46:22;3.50;;;3.20;;
10463;SDS011;5279;42.048;24.638;2023-03-19T06:48:50;3.73;;;3.27;;
10463;SDS011;5279;42.048;24.638;2023-03-19T06:51:17;4.30;;;3.90;;
10463;SDS011;5279;42.048;24.638;2023-03-19T06:53:44;4.40;;;3.47;;
10463;SDS011;5279;42.048;24.638;2023-03-19T06:56:11;4.03;;;3.30;;
10463;SDS011;5279;42.048;24.638;2023-03-19T06:58:38;4.70;;;3.57;;
10463;SDS011;5279;42.048;24.638;2023-03-19T07:01:06;5.60;;;3.50;;
10463;SDS011;5279;42.048;24.638;2023-03-19T07:03:33;4.03;;;3.30;;
10463;SDS011;5279;42.048;24.638;2023-03-19T07:06:00;3.90;;;2.90;;
10463;SDS011;5279;42.048;24.638;2023-03-19T07:08:27;4.70;;;3.63;;
10463;SDS011;5279;42.048;24.638;2023-03-19T07:10:54;3.67;;;3.30;;
10463;SDS011;5279;42.048;24.638;2023-03-19T07:13:21;3.57;;;3.00;;
10463;SDS011;5279;42.048;24.638;2023-03-19T07:15:48;4.43;;;3.10;;
10463;SDS011;5279;42.048;24.638;2023-03-19T07:18:16;4.17;;;3.77;;
10463;SDS011;5279;42.048;24.638;2023-03-19T07:20:43;4.40;;;3.63;;
10463;SDS011;5279;42.048;24.638;2023-03-19T07:23:10;4.13;;;3.50;;
10463;SDS011;5279;42.048;24.638;2023-03-19T07:25:37;5.50;;;3.97;;
10463;SDS011;5279;42.048;24.638;2023-03-19T07:28:04;4.40;;;3.60;;
10463;SDS011;5279;42.048;24.638;2023-03-19T07:30:31;4.80;;;3.80;;
10463;SDS011;5279;42.048;24.638;2023-03-19T07:32:59;5.00;;;3.53;;
10463;SDS011;5279;42.048;24.638;2023-03-19T07:35:27;4.00;;;3.20;;
10463;SDS011;5279;42.048;24.638;2023-03-19T07:37:54;5.60;;;3.60;;
10463;SDS011;5279;42.048;24.638;2023-03-19T07:40:21;4.33;;;3.57;;
10463;SDS011;5279;42.048;24.638;2023-03-19T07:42:48;4.93;;;3.93;;
10463;SDS011;5279;42.048;24.638;2023-03-19T07:45:15;4.30;;;3.90;;
10463;SDS011;5279;42.048;24.638;2023-03-19T07:47:42;6.60;;;3.57;;
10463;SDS011;5279;42.048;24.638;2023-03-19T07:50:10;3.03;;;2.60;;
10463;SDS011;5279;42.048;24.638;2023-03-19T07:52:39;2.83;;;2.50;;
10463;SDS011;5279;42.048;24.638;2023-03-19T07:55:07;3.37;;;2.30;;
10463;SDS011;5279;42.048;24.638;2023-03-19T07:57:34;3.70;;;2.87;;
10463;SDS011;5279;42.048;24.638;2023-03-19T08:00:01;3.07;;;2.57;;
10463;SDS011;5279;42.048;24.638;2023-03-19T08:02:29;3.60;;;2.97;;
10463;SDS011;5279;42.048;24.638;2023-03-19T08:04:56;2.67;;;2.37;;
10463;SDS011;5279;42.048;24.638;2023-03-19T08:07:31;2.90;;;2.40;;
10463;SDS011;5279;42.048;24.638;2023-03-19T08:09:59;2.60;;;2.40;;
10463;SDS011;5279;42.048;24.638;2023-03-19T08:12:26;3.20;;;2.50;;
10463;SDS011;5279;42.048;24.638;2023-03-19T08:14:53;3.07;;;2.70;;
10463;SDS011;5279;42.048;24.638;2023-03-19T08:17:20;2.93;;;2.20;;
10463;SDS011;5279;42.048;24.638;2023-03-19T08:19:47;9.30;;;2.80;;
10463;SDS011;5279;42.048;24.638;2023-03-19T08:22:14;3.10;;;2.40;;
10463;SDS011;5279;42.048;24.638;2023-03-19T08:24:41;2.20;;;2.00;;
10463;SDS011;5279;42.048;24.638;2023-03-19T08:27:09;2.87;;;2.57;;
10463;SDS011;5279;42.048;24.638;2023-03-19T08:29:36;2.73;;;2.20;;
10463;SDS011;5279;42.048;24.638;2023-03-19T08:32:03;2.20;;;2.00;;
10463;SDS011;5279;42.048;24.638;2023-03-19T08:34:31;3.10;;;2.77;;
10463;SDS011;5279;42.048;24.638;2023-03-19T08:36:58;2.20;;;2.00;;
10463;SDS011;5279;42.048;24.638;2023-03-19T08:39:25;2.43;;;2.20;;
10463;SDS011;5279;42.048;24.638;2023-03-19T08:41:52;2.70;;;2.47;;
10463;SDS011;5279;42.048;24.638;2023-03-19T08:44:21;2.93;;;2.33;;
10463;SDS011;5279;42.048;24.638;2023-03-19T08:46:48;2.60;;;2.27;;
10463;SDS011;5279;42.048;24.638;2023-03-19T08:49:14;3.33;;;2.67;;
10463;SDS011;5279;42.048;24.638;2023-03-19T08:51:41;3.60;;;3.07;;
10463;SDS011;5279;42.048;24.638;2023-03-19T08:54:08;4.93;;;2.40;;
10463;SDS011;5279;42.048;24.638;2023-03-19T08:56:37;3.53;;;2.70;;
10463;SDS011;5279;42.048;24.638;2023-03-19T08:59:05;3.47;;;2.50;;
10463;SDS011;5279;42.048;24.638;2023-03-19T09:01:33;3.37;;;3.07;;
10463;SDS011;5279;42.048;24.638;2023-03-19T09:04:01;3.03;;;2.47;;
10463;SDS011;5279;42.048;24.638;2023-03-19T09:06:28;2.60;;;2.40;;
10463;SDS011;5279;42.048;24.638;2023-03-19T09:08:55;2.10;;;1.87;;
10463;SDS011;5279;42.048;24.638;2023-03-19T09:11:22;1.97;;;1.80;;
10463;SDS011;5279;42.048;24.638;2023-03-19T09:13:49;2.10;;;1.90;;
10463;SDS011;5279;42.048;24.638;2023-03-19T09:16:16;2.47;;;2.00;;
10463;SDS011;5279;42.048;24.638;2023-03-19T09:18:45;3.87;;;2.10;;
10463;SDS011;5279;42.048;24.638;2023-03-19T09:21:12;2.10;;;1.87;;
10463;SDS011;5279;42.048;24.638;2023-03-19T09:23:39;3.43;;;1.80;;
10463;SDS011;5279;42.048;24.638;2023-03-19T09:26:05;2.00;;;1.80;;
10463;SDS011;5279;42.048;24.638;2023-03-19T09:28:33;1.67;;;1.57;;
10463;SDS011;5279;42.048;24.638;2023-03-19T09:31:00;2.20;;;1.80;;
10463;SDS011;5279;42.048;24.638;2023-03-19T09:33:31;2.03;;;1.90;;
10463;SDS011;5279;42.048;24.638;2023-03-19T09:36:00;1.70;;;1.60;;
10463;SDS011;5279;42.048;24.638;2023-03-19T09:38:26;2.37;;;1.80;;
10463;SDS011;5279;42.048;24.638;2023-03-19T09:40:59;2.00;;;1.60;;
10463;SDS011;5279;42.048;24.638;2023-03-19T09:43:37;1.80;;;1.70;;
10463;SDS011;5279;42.048;24.638;2023-03-19T09:46:15;2.20;;;2.00;;
10463;SDS011;5279;42.048;24.638;2023-03-19T09:48:47;1.67;;;1.53;;
10463;SDS011;5279;42.048;24.638;2023-03-19T09:51:22;1.70;;;1.50;;
10463;SDS011;5279;42.048;24.638;2023-03-19T09:53:56;1.33;;;1.23;;
10463;SDS011;5279;42.048;24.638;2023-03-19T09:56:27;1.40;;;1.30;;
10463;SDS011;5279;42.048;24.638;2023-03-19T09:58:54;1.60;;;1.50;;
10463;SDS011;5279;42.048;24.638;2023-03-19T10:01:22;1.38;;;1.25;;
10463;SDS011;5279;42.048;24.638;2023-03-19T10:03:59;1.40;;;1.30;;
10463;SDS011;5279;42.048;24.638;2023-03-19T10:06:43;1.42;;;1.33;;
10463;SDS011;5279;42.048;24.638;2023-03-19T10:12:21;1.25;;;1.15;;
10463;SDS011;5279;42.048;24.638;2023-03-19T10:15:00;1.20;;;1.10;;
10463;SDS011;5279;42.048;24.638;2023-03-19T10:17:36;1.08;;;0.98;;
10463;SDS011;5279;42.048;24.638;2023-03-19T10:20:06;1.10;;;1.00;;
10463;SDS011;5279;42.048;24.638;2023-03-19T10:22:44;1.13;;;1.02;;
10463;SDS011;5279;42.048;24.638;2023-03-19T10:25:17;1.17;;;1.08;;
10463;SDS011;5279;42.048;24.638;2023-03-19T10:27:49;1.10;;;1.10;;
10463;SDS011;5279;42.048;24.638;2023-03-19T10:30:22;1.60;;;1.00;;
10463;SDS011;5279;42.048;24.638;2023-03-19T10:32:50;0.82;;;0.82;;
10463;SDS011;5279;42.048;24.638;2023-03-19T10:35:21;1.27;;;1.17;;
10463;SDS011;5279;42.048;24.638;2023-03-19T10:37:52;1.45;;;1.33;;
10463;SDS011;5279;42.048;24.638;2023-03-19T10:40:20;1.33;;;1.25;;
10463;SDS011;5279;42.048;24.638;2023-03-19T10:43:02;2.05;;;1.38;;
10463;SDS011;5279;42.048;24.638;2023-03-19T10:45:33;1.40;;;1.30;;
10463;SDS011;5279;42.048;24.638;2023-03-19T10:48:01;1.30;;;1.20;;
10463;SDS011;5279;42.048;24.638;2023-03-19T10:50:31;1.23;;;1.13;;
10463;SDS011;5279;42.048;24.638;2023-03-19T10:53:04;1.25;;;1.15;;
10463;SDS011;5279;42.048;24.638;2023-03-19T10:55:47;1.23;;;1.15;;
10463;SDS011;5279;42.048;24.638;2023-03-19T10:58:20;1.38;;;1.27;;
10463;SDS011;5279;42.048;24.638;2023-03-19T11:00:54;1.35;;;1.10;;
10463;SDS011;5279;42.048;24.638;2023-03-19T11:03:28;1.10;;;1.00;;
10463;SDS011;5279;42.048;24.638;2023-03-19T11:08:48;1.10;;;1.00;;
10463;SDS011;5279;42.048;24.638;2023-03-19T11:11:24;1.08;;;1.00;;
10463;SDS011;5279;42.048;24.638;2023-03-19T11:13:52;1.17;;;1.10;;
10463;SDS011;5279;42.048;24.638;2023-03-19T11:16:19;1.35;;;1.25;;
10463;SDS011;5279;42.048;24.638;2023-03-19T11:18:47;1.30;;;1.20;;
10463;SDS011;5279;42.048;24.638;2023-03-19T11:21:26;1.02;;;1.02;;
10463;SDS011;5279;42.048;24.638;2023-03-19T11:23:59;1.30;;;1.20;;
10463;SDS011;5279;42.048;24.638;2023-03-19T11:26:28;1.10;;;1.05;;
10463;SDS011;5279;42.048;24.638;2023-03-19T11:29:00;1.20;;;1.10;;
10463;SDS011;5279;42.048;24.638;2023-03-19T11:31:30;1.20;;;1.10;;
10463;SDS011;5279;42.048;24.638;2023-03-19T11:34:07;1.10;;;1.10;;
10463;SDS011;5279;42.048;24.638;2023-03-19T11:37:00;1.20;;;1.10;;
10463;SDS011;5279;42.048;24.638;2023-03-19T11:39:36;1.08;;;0.98;;
10463;SDS011;5279;42.048;24.638;2023-03-19T11:42:31;1.30;;;1.20;;
10463;SDS011;5279;42.048;24.638;2023-03-19T11:45:11;1.38;;;1.27;;
10463;SDS011;5279;42.048;24.638;2023-03-19T11:47:47;1.38;;;1.27;;
10463;SDS011;5279;42.048;24.638;2023-03-19T11:50:25;1.10;;;1.00;;
10463;SDS011;5279;42.048;24.638;2023-03-19T11:52:59;1.48;;;1.38;;
10463;SDS011;5279;42.048;24.638;2023-03-19T11:55:35;1.50;;;1.40;;
10463;SDS011;5279;42.048;24.638;2023-03-19T11:58:14;1.20;;;1.10;;
10463;SDS011;5279;42.048;24.638;2023-03-19T12:00:55;1.30;;;1.20;;
10463;SDS011;5279;42.048;24.638;2023-03-19T12:03:30;0.98;;;0.98;;
10463;SDS011;5279;42.048;24.638;2023-03-19T12:06:09;1.27;;;1.17;;
10463;SDS011;5279;42.048;24.638;2023-03-19T12:08:48;1.30;;;1.20;;
10463;SDS011;5279;42.048;24.638;2023-03-19T12:11:23;1.33;;;1.15;;
10463;SDS011;5279;42.048;24.638;2023-03-19T12:17:22;1.02;;;0.93;;
10463;SDS011;5279;42.048;24.638;2023-03-19T12:20:05;1.38;;;1.27;;
10463;SDS011;5279;42.048;24.638;2023-03-19T12:22:46;1.20;;;1.10;;
10463;SDS011;5279;42.048;24.638;2023-03-19T12:25:38;1.15;;;0.95;;
10463;SDS011;5279;42.048;24.638;2023-03-19T12:28:15;0.82;;;0.82;;
10463;SDS011;5279;42.048;24.638;2023-03-19T12:30:52;1.25;;;0.90;;
10463;SDS011;5279;42.048;24.638;2023-03-19T12:33:34;1.13;;;1.10;;
10463;SDS011;5279;42.048;24.638;2023-03-19T12:36:08;1.20;;;1.10;;
10463;SDS011;5279;42.048;24.638;2023-03-19T12:38:40;1.20;;;1.10;;
10463;SDS011;5279;42.048;24.638;2023-03-19T12:41:13;1.45;;;1.35;;
10463;SDS011;5279;42.048;24.638;2023-03-19T12:43:55;1.25;;;1.10;;
10463;SDS011;5279;42.048;24.638;2023-03-19T12:46:27;1.45;;;1.35;;
10463;SDS011;5279;42.048;24.638;2023-03-19T12:48:59;0.90;;;0.90;;
10463;SDS011;5279;42.048;24.638;2023-03-19T12:51:31;1.20;;;1.10;;
10463;SDS011;5279;42.048;24.638;2023-03-19T12:54:02;1.15;;;1.10;;
10463;SDS011;5279;42.048;24.638;2023-03-19T12:56:34;1.20;;;1.10;;
10463;SDS011;5279;42.048;24.638;2023-03-19T12:59:10;1.00;;;1.00;;
10463;SDS011;5279;42.048;24.638;2023-03-19T13:01:45;1.33;;;1.23;;
10463;SDS011;5279;42.048;24.638;2023-03-19T13:04:15;1.00;;;0.90;;
10463;SDS011;5279;42.048;24.638;2023-03-19T13:06:48;1.10;;;1.10;;
10463;SDS011;5279;42.048;24.638;2023-03-19T13:09:23;1.17;;;1.08;;
10463;SDS011;5279;42.048;24.638;2023-03-19T13:11:57;1.10;;;1.10;;
10463;SDS011;5279;42.048;24.638;2023-03-19T13:14:30;0.90;;;0.90;;
10463;SDS011;5279;42.048;24.638;2023-03-19T13:17:06;1.02;;;1.00;;
10463;SDS011;5279;42.048;24.638;2023-03-19T13:19:40;1.05;;;1.00;;
10463;SDS011;5279;42.048;24.638;2023-03-19T13:22:12;1.30;;;1.17;;
10463;SDS011;5279;42.048;24.638;2023-03-19T13:24:42;1.00;;;0.90;;
10463;SDS011;5279;42.048;24.638;2023-03-19T13:27:12;1.02;;;0.93;;
10463;SDS011;5279;42.048;24.638;2023-03-19T13:29:53;1.10;;;1.00;;
10463;SDS011;5279;42.048;24.638;2023-03-19T13:32:26;1.20;;;1.10;;
10463;SDS011;5279;42.048;24.638;2023-03-19T13:37:50;1.10;;;1.00;;
10463;SDS011;5279;42.048;24.638;2023-03-19T13:43:23;1.33;;;1.23;;
10463;SDS011;5279;42.048;24.638;2023-03-19T13:48:58;1.60;;;1.33;;
10463;SDS011;5279;42.048;24.638;2023-03-19T13:51:34;1.30;;;1.20;;
10463;SDS011;5279;42.048;24.638;2023-03-19T13:54:04;1.73;;;1.20;;
10463;SDS011;5279;42.048;24.638;2023-03-19T13:59:42;2.35;;;1.33;;
10463;SDS011;5279;42.048;24.638;2023-03-19T14:05:16;1.50;;;1.40;;
10463;SDS011;5279;42.048;24.638;2023-03-19T14:07:47;1.27;;;1.17;;
10463;SDS011;5279;42.048;24.638;2023-03-19T14:10:20;1.27;;;1.17;;
10463;SDS011;5279;42.048;24.638;2023-03-19T14:12:50;1.40;;;1.30;;
10463;SDS011;5279;42.048;24.638;2023-03-19T14:15:27;1.23;;;1.13;;
10463;SDS011;5279;42.048;24.638;2023-03-19T14:17:57;1.40;;;1.30;;
10463;SDS011;5279;42.048;24.638;2023-03-19T14:20:27;1.40;;;1.30;;
10463;SDS011;5279;42.048;24.638;2023-03-19T14:23:11;1.60;;;1.37;;
10463;SDS011;5279;42.048;24.638;2023-03-19T14:28:40;1.43;;;1.10;;
10463;SDS011;5279;42.048;24.638;2023-03-19T14:31:25;1.20;;;1.10;;
10463;SDS011;5279;42.048;24.638;2023-03-19T14:34:02;1.50;;;1.27;;
10463;SDS011;5279;42.048;24.638;2023-03-19T14:36:37;1.30;;;1.20;;
10463;SDS011;5279;42.048;24.638;2023-03-19T14:39:11;1.30;;;0.70;;
10463;SDS011;5279;42.048;24.638;2023-03-19T14:41:45;0.60;;;0.60;;
10463;SDS011;5279;42.048;24.638;2023-03-19T14:44:30;0.80;;;0.80;;
10463;SDS011;5279;42.048;24.638;2023-03-19T14:47:35;0.97;;;0.87;;
10463;SDS011;5279;42.048;24.638;2023-03-19T14:50:18;1.30;;;1.00;;
10463;SDS011;5279;42.048;24.638;2023-03-19T14:52:58;1.20;;;1.10;;
10463;SDS011;5279;42.048;24.638;2023-03-19T14:55:33;1.30;;;1.10;;
10463;SDS011;5279;42.048;24.638;2023-03-19T14:58:01;1.10;;;1.00;;
10463;SDS011;5279;42.048;24.638;2023-03-19T15:00:36;1.43;;;1.10;;
10463;SDS011;5279;42.048;24.638;2023-03-19T15:03:11;3.27;;;2.47;;
10463;SDS011;5279;42.048;24.638;2023-03-19T15:05:46;1.40;;;1.30;;
10463;SDS011;5279;42.048;24.638;2023-03-19T15:08:16;1.27;;;1.17;;
10463;SDS011;5279;42.048;24.638;2023-03-19T15:10:49;2.30;;;1.40;;
10463;SDS011;5279;42.048;24.638;2023-03-19T15:13:35;1.03;;;1.00;;
10463;SDS011;5279;42.048;24.638;2023-03-19T15:16:17;0.90;;;0.90;;
10463;SDS011;5279;42.048;24.638;2023-03-19T15:18:57;1.10;;;0.97;;
10463;SDS011;5279;42.048;24.638;2023-03-19T15:21:26;8.33;;;3.70;;
10463;SDS011;5279;42.048;24.638;2023-03-19T15:23:54;5.97;;;2.90;;
10463;SDS011;5279;42.048;24.638;2023-03-19T15:26:28;1.87;;;1.30;;
10463;SDS011;5279;42.048;24.638;2023-03-19T15:28:56;5.47;;;2.00;;
10463;SDS011;5279;42.048;24.638;2023-03-19T15:31:23;1.90;;;1.47;;
10463;SDS011;5279;42.048;24.638;2023-03-19T15:34:16;2.37;;;1.67;;
10463;SDS011;5279;42.048;24.638;2023-03-19T15:36:45;1.60;;;1.43;;
10463;SDS011;5279;42.048;24.638;2023-03-19T15:39:13;1.60;;;1.30;;
10463;SDS011;5279;42.048;24.638;2023-03-19T15:41:46;1.20;;;1.07;;
10463;SDS011;5279;42.048;24.638;2023-03-19T15:44:18;1.30;;;1.00;;
10463;SDS011;5279;42.048;24.638;2023-03-19T15:46:54;1.27;;;1.00;;
10463;SDS011;5279;42.048;24.638;2023-03-19T15:49:24;1.03;;;1.03;;
10463;SDS011;5279;42.048;24.638;2023-03-19T15:51:57;1.53;;;1.30;;